Time;durP1;ratioP1;P1;durP2;ratioP2;P2;SDS_P1;SDS_P2;PMS_P1;PMS_P2;Temp;Humidity;BMP_temperature;BMP_pressure;BME280_temperature;BME280_humidity;BME280_pressure;Samples;Min_cycle;Max_cycle;Signal;HPM_P1;HPM_P2
2023/01/05 00:45:07;;;;;;;4.18;0.73;;;9.80;99.90;;;;;;6344370;22;20031;-92
2023/01/05 00:47:42;;;;;;;6.18;1.00;;;9.80;99.90;;;;;;6339736;22;20010;-93
2023/01/05 01:39:14;;;;;;;6.85;0.95;;;9.80;99.90;;;;;;6311577;22;20022;-92
2023/01/05 01:41:40;;;;;;;6.00;0.95;;;9.80;99.90;;;;;;6260027;22;20098;-90
2023/01/05 01:44:44;;;;;;;8.93;1.77;;;9.80;99.90;;;;;;6260236;22;20022;-94
2023/01/05 01:54:42;;;;;;;6.13;1.02;;;9.80;99.90;;;;;;6315848;22;20018;-95
2023/01/05 01:57:13;;;;;;;8.15;1.40;;;9.80;99.90;;;;;;6265169;22;20031;-96
2023/01/05 01:59:41;;;;;;;3.25;0.70;;;9.90;99.90;;;;;;6289820;22;20019;-94
2023/01/05 02:02:36;;;;;;;5.45;1.27;;;9.80;99.90;;;;;;6314537;22;20018;-96
2023/01/05 03:06:31;;;;;;;6.57;0.60;;;9.80;99.90;;;;;;6340581;22;20109;-89
2023/01/05 03:16:38;;;;;;;6.13;0.52;;;9.80;99.90;;;;;;6348132;22;20382;-95
2023/01/05 04:34:24;;;;;;;8.77;0.80;;;9.80;99.90;;;;;;6343369;22;20018;-91
2023/01/05 04:37:18;;;;;;;6.40;1.40;;;9.80;99.90;;;;;;6315349;22;20046;-92
2023/01/05 04:39:44;;;;;;;5.47;1.20;;;9.80;99.90;;;;;;6343018;22;20343;-94
2023/01/05 04:42:10;;;;;;;6.57;0.90;;;9.80;99.90;;;;;;6317956;22;20042;-93
2023/01/05 04:44:36;;;;;;;8.17;0.83;;;9.80;99.90;;;;;;6322125;22;20015;-91
2023/01/05 04:47:02;;;;;;;14.90;1.38;;;9.80;99.90;;;;;;6321351;22;20241;-93
2023/01/05 04:49:28;;;;;;;9.67;1.43;;;9.80;99.90;;;;;;6290557;22;20019;-90
2023/01/05 04:54:39;;;;;;;5.43;1.00;;;9.80;99.90;;;;;;6339062;22;20023;-95
2023/01/05 05:00:14;;;;;;;6.72;1.42;;;9.80;99.90;;;;;;6340354;22;20475;-96
2023/01/05 05:02:45;;;;;;;6.78;0.98;;;9.80;99.90;;;;;;6286281;22;20050;-94
2023/01/05 05:05:14;;;;;;;7.38;0.85;;;9.80;99.90;;;;;;6314987;22;20019;-93
2023/01/05 05:07:39;;;;;;;6.27;1.47;;;9.70;99.90;;;;;;6287053;22;20022;-94
2023/01/05 05:10:06;;;;;;;9.63;1.43;;;9.80;99.90;;;;;;6287854;22;20018;-94
2023/01/05 05:19:43;;;;;;;7.63;1.13;;;9.70;99.90;;;;;;6339890;22;20015;-95
2023/01/05 05:22:10;;;;;;;6.18;0.82;;;9.70;99.90;;;;;;6286667;22;20015;-94
2023/01/05 05:24:36;;;;;;;7.18;1.02;;;9.70;99.90;;;;;;6285765;22;20443;-93
2023/01/05 05:27:01;;;;;;;5.18;1.25;;;9.70;99.90;;;;;;6260855;22;20071;-92
2023/01/05 05:29:51;;;;;;;9.37;1.30;;;9.70;99.90;;;;;;6287241;22;20018;-93
2023/01/05 05:32:17;;;;;;;9.75;1.13;;;9.70;99.90;;;;;;6287145;22;20019;-95
2023/01/05 05:35:05;;;;;;;11.63;1.80;;;9.70;99.90;;;;;;6286408;22;20046;-95
2023/01/05 05:37:30;;;;;;;;;;;9.70;99.90;;;;;;6286972;22;20384;-93
2023/01/05 05:39:56;;;;;;;4.03;0.80;;;9.70;99.90;;;;;;6261648;22;19914;-92
2023/01/05 05:42:22;;;;;;;5.43;0.93;;;9.70;99.90;;;;;;6287340;22;20101;-93
2023/01/05 05:44:48;;;;;;;9.45;0.95;;;9.70;99.90;;;;;;6287761;22;20112;-93
2023/01/05 05:47:14;;;;;;;4.73;0.83;;;9.70;99.90;;;;;;6286754;22;20029;-93
2023/01/05 05:52:19;;;;;;;5.13;1.17;;;9.70;99.90;;;;;;6283267;22;20024;-93
2023/01/05 05:54:46;;;;;;;6.65;1.20;;;9.70;99.90;;;;;;6256774;22;20360;-95
2023/01/05 05:57:40;;;;;;;4.72;0.82;;;9.70;99.90;;;;;;6205927;22;20022;-93
2023/01/05 06:00:06;;;;;;;5.82;1.15;;;9.70;99.90;;;;;;6229825;22;20015;-92
2023/01/05 06:02:32;;;;;;;5.35;1.05;;;9.70;99.90;;;;;;6230355;22;20007;-92
2023/01/05 06:04:58;;;;;;;9.93;1.20;;;9.70;99.90;;;;;;6205417;22;20015;-91
2023/01/05 06:07:27;;;;;;;7.43;1.20;;;9.70;99.90;;;;;;6229514;22;20452;-93
2023/01/05 06:09:53;;;;;;;8.52;0.98;;;9.70;99.90;;;;;;6202787;22;20511;-92
2023/01/05 06:16:30;;;;;;;;;;;9.60;99.90;;;;;;6282416;22;20022;-91
2023/01/05 06:18:56;;;;;;;4.00;0.80;;;9.60;99.90;;;;;;6259633;22;19957;-94
2023/01/05 06:21:22;;;;;;;4.23;1.30;;;9.60;99.90;;;;;;6233247;22;20015;-95
2023/01/05 06:23:48;;;;;;;6.13;1.10;;;9.50;99.90;;;;;;6206663;22;20099;-92
2023/01/05 06:26:45;;;;;;;5.57;1.20;;;9.50;99.90;;;;;;6205046;22;20007;-92
2023/01/05 06:29:35;;;;;;;7.18;1.17;;;9.50;99.90;;;;;;6235882;22;20444;-96
2023/01/05 06:32:01;;;;;;;11.40;1.10;;;9.50;99.90;;;;;;6233042;22;20148;-92
2023/01/05 06:34:28;;;;;;;4.37;0.90;;;9.50;99.90;;;;;;6236034;22;20015;-96
2023/01/05 06:36:55;;;;;;;6.80;1.15;;;9.50;99.90;;;;;;6209131;22;20436;-92
2023/01/05 06:39:33;;;;;;;4.07;0.70;;;9.40;99.90;;;;;;6193492;22;20015;-95
2023/01/05 06:41:59;;;;;;;5.72;1.10;;;9.50;99.90;;;;;;6234163;22;20016;-91
2023/01/05 06:44:46;;;;;;;3.40;0.83;;;9.50;99.90;;;;;;6211748;22;20010;-93
2023/01/05 06:47:13;;;;;;;6.88;0.90;;;9.40;99.90;;;;;;6235695;22;20004;-93
2023/01/05 06:49:53;;;;;;;5.63;1.07;;;9.40;99.90;;;;;;6284954;22;20448;-92
2023/01/05 06:55:09;;;;;;;6.70;1.52;;;9.40;99.90;;;;;;6366400;22;20049;-91
2023/01/05 06:57:36;;;;;;;6.43;1.02;;;9.50;99.90;;;;;;6350481;22;20026;-92
2023/01/05 07:00:10;;;;;;;8.10;1.23;;;9.50;99.90;;;;;;6351002;22;20474;-93
2023/01/05 07:02:36;;;;;;;6.88;1.30;;;9.40;99.90;;;;;;6296396;22;20101;-91
2023/01/05 07:05:06;;;;;;;6.65;1.40;;;9.40;99.90;;;;;;6323175;22;20033;-92
2023/01/05 07:07:31;;;;;;;4.63;0.95;;;9.40;99.90;;;;;;6298011;22;20018;-95
2023/01/05 07:09:58;;;;;;;5.53;1.50;;;9.40;99.90;;;;;;6296060;22;20044;-95
2023/01/05 07:12:24;;;;;;;6.35;1.00;;;9.40;99.90;;;;;;6296806;22;20531;-92
2023/01/05 07:14:50;;;;;;;5.68;1.10;;;9.40;99.90;;;;;;6324524;22;19998;-96
2023/01/05 07:17:54;;;;;;;;;;;;;;;;;;;;;
2023/01/05 07:20:33;;;;;;;9.10;1.15;;;9.40;99.90;;;;;;6349452;22;20099;-92
2023/01/05 07:23:04;;;;;;;7.07;1.00;;;9.40;99.90;;;;;;6350597;22;20006;-91
2023/01/05 07:25:31;;;;;;;6.13;1.00;;;9.40;99.90;;;;;;6319930;22;20044;-92
2023/01/05 07:27:57;;;;;;;8.95;1.20;;;9.40;99.90;;;;;;6320194;22;20018;-91
2023/01/05 07:30:25;;;;;;;4.72;1.08;;;9.40;99.90;;;;;;6296411;22;20014;-92
2023/01/05 07:33:01;;;;;;;7.07;1.42;;;9.40;99.90;;;;;;6300155;22;20025;-93
2023/01/05 07:35:30;;;;;;;10.75;1.70;;;9.40;99.90;;;;;;6327264;22;20021;-92
2023/01/05 07:37:59;;;;;;;2.72;0.73;;;9.40;99.90;;;;;;6326142;22;20018;-92
2023/01/05 07:40:25;;;;;;;7.30;1.17;;;9.40;99.90;;;;;;6298606;22;20014;-91
2023/01/05 07:42:52;;;;;;;6.53;1.02;;;9.40;99.90;;;;;;6301571;22;20014;-92
2023/01/05 07:45:19;;;;;;;6.55;1.20;;;9.40;99.90;;;;;;6323862;22;20018;-94
2023/01/05 08:38:13;;;;;;;7.13;1.02;;;9.40;99.90;;;;;;6345928;22;20030;-93
2023/01/05 08:40:39;;;;;;;4.87;0.80;;;9.40;99.90;;;;;;6287576;22;20440;-89
2023/01/05 08:56:02;;;;;;;3.80;0.50;;;9.30;99.90;;;;;;6346021;22;20340;-89
2023/01/05 08:58:34;;;;;;;4.63;0.50;;;9.30;99.90;;;;;;6295607;22;20018;-91
2023/01/05 09:01:04;;;;;;;2.55;0.40;;;9.30;99.90;;;;;;6323593;22;20255;-96
2023/01/05 09:03:30;;;;;;;4.85;0.82;;;9.30;99.90;;;;;;6294462;22;20021;-90
2023/01/05 09:16:40;;;;;;;2.65;0.60;;;9.30;99.90;;;;;;6250028;22;20085;-92
2023/01/05 09:21:40;;;;;;;1.08;0.28;;;9.30;99.90;;;;;;6331531;22;20027;-89
2023/01/05 09:24:11;;;;;;;3.07;0.90;;;9.30;99.90;;;;;;6286256;22;20015;-91
2023/01/05 09:26:36;;;;;;;2.83;0.57;;;9.20;99.90;;;;;;6287208;22;20019;-93
2023/01/05 09:34:13;;;;;;;3.22;0.80;;;9.20;99.90;;;;;;6342998;22;20023;-90
2023/01/05 09:36:51;;;;;;;4.13;0.83;;;9.20;99.90;;;;;;6290149;22;20095;-92
2023/01/05 09:39:16;;;;;;;5.38;0.73;;;9.20;99.90;;;;;;6289169;22;20428;-95
2023/01/05 09:41:50;;;;;;;2.63;0.30;;;9.20;99.90;;;;;;6266042;22;20057;-95
2023/01/05 09:46:53;;;;;;;5.03;0.85;;;9.30;99.90;;;;;;6316521;22;20019;-89
2023/01/05 09:49:22;;;;;;;2.10;0.45;;;9.30;99.90;;;;;;6284595;22;20030;-89
2023/01/05 09:51:54;;;;;;;6.95;1.52;;;9.30;99.90;;;;;;6261286;22;20015;-94
2023/01/05 09:54:22;;;;;;;5.63;0.88;;;9.30;99.90;;;;;;6261996;22;20015;-91
2023/01/05 09:56:49;;;;;;;5.10;0.82;;;9.30;99.90;;;;;;6267848;22;19999;-91
2023/01/05 09:59:32;;;;;;;3.85;0.75;;;9.40;99.90;;;;;;6266303;22;20022;-91
2023/01/05 10:02:42;;;;;;;4.88;0.77;;;9.40;99.90;;;;;;6266744;22;20015;-91
2023/01/05 10:05:13;;;;;;;4.93;0.60;;;9.40;99.90;;;;;;6261986;22;20015;-91
2023/01/05 10:08:00;;;;;;;4.63;0.90;;;9.40;99.90;;;;;;6262114;22;20015;-89
2023/01/05 10:13:42;;;;;;;3.28;0.70;;;9.40;99.90;;;;;;6287526;22;20027;-89
2023/01/05 10:25:01;;;;;;;5.00;0.60;;;9.50;99.90;;;;;;6340220;22;20022;-89
2023/01/05 10:28:02;;;;;;;5.18;0.52;;;9.50;99.90;;;;;;6313258;22;20048;-90
2023/01/05 10:30:41;;;;;;;3.17;0.32;;;9.50;99.90;;;;;;6313132;22;20471;-92
2023/01/05 10:33:51;;;;;;;1.45;0.30;;;9.60;99.90;;;;;;6288217;22;20042;-92
2023/01/05 10:36:34;;;;;;;3.33;0.40;;;9.60;99.90;;;;;;6288973;22;20018;-94
2023/01/05 10:39:24;;;;;;;2.40;0.40;;;9.60;99.90;;;;;;6289500;22;20026;-92
2023/01/05 10:42:02;;;;;;;3.28;0.50;;;9.60;99.90;;;;;;6288631;22;20015;-93
2023/01/05 10:44:37;;;;;;;2.20;0.55;;;9.50;99.90;;;;;;6288359;22;20023;-93
2023/01/05 10:47:35;;;;;;;1.73;0.57;;;9.50;99.90;;;;;;6289405;22;20022;-95
2023/01/05 10:50:16;;;;;;;4.38;0.75;;;9.50;99.90;;;;;;6287320;22;20448;-93
2023/01/05 10:52:44;;;;;;;3.75;0.63;;;9.50;99.90;;;;;;6287332;22;20076;-93
2023/01/05 10:55:14;;;;;;;2.25;0.40;;;9.50;99.90;;;;;;6287600;22;20015;-95
2023/01/05 10:57:41;;;;;;;3.30;0.60;;;9.50;99.90;;;;;;6287520;22;20015;-96
2023/01/05 11:00:19;;;;;;;4.78;0.70;;;9.50;99.90;;;;;;6288030;22;20019;-92
2023/01/05 11:02:57;;;;;;;3.20;0.40;;;9.50;99.90;;;;;;6288098;22;20019;-96
2023/01/05 11:05:48;;;;;;;3.83;0.50;;;9.50;99.90;;;;;;6288536;22;20018;-89
2023/01/05 11:08:20;;;;;;;6.50;1.23;;;9.60;99.90;;;;;;6288105;22;20072;-90
2023/01/05 11:10:51;;;;;;;6.85;0.73;;;9.60;99.90;;;;;;6288573;22;20467;-91
2023/01/05 11:13:33;;;;;;;4.82;0.80;;;9.60;99.90;;;;;;6286178;22;20102;-94
2023/01/05 11:16:08;;;;;;;7.15;1.77;;;9.70;99.90;;;;;;6287273;22;20039;-95
2023/01/05 11:18:40;;;;;;;6.65;1.35;;;9.70;99.90;;;;;;6291093;22;20015;-94
2023/01/05 11:24:49;;;;;;;;;;;9.70;99.90;;;;;;6340588;22;20030;-91
2023/01/05 11:27:18;;;;;;;6.57;0.73;;;9.80;99.90;;;;;;6263184;22;19915;-96
2023/01/05 11:29:44;;;;;;;3.58;0.80;;;9.80;99.90;;;;;;6289228;22;20086;-91
2023/01/05 11:32:11;;;;;;;3.77;0.70;;;9.80;99.90;;;;;;6289230;22;20053;-94
2023/01/05 11:35:16;;;;;;;4.28;0.50;;;9.80;99.90;;;;;;6290925;22;20094;-95
2023/01/05 11:37:44;;;;;;;2.67;0.63;;;9.80;99.90;;;;;;6293337;22;20015;-96
2023/01/05 11:40:57;;;;;;;7.28;0.50;;;9.80;99.90;;;;;;6296125;22;20018;-95
2023/01/05 11:43:31;;;;;;;2.95;0.45;;;9.80;99.90;;;;;;6316906;22;20021;-92
2023/01/05 11:58:56;;;;;;;5.88;0.70;;;9.80;99.90;;;;;;6342901;22;20032;-96
2023/01/05 13:17:25;;;;;;;3.97;0.50;;;10.10;99.90;;;;;;6308760;22;20468;-96
2023/01/05 13:21:02;;;;;;;4.40;0.80;;;10.10;99.90;;;;;;6318929;22;20019;-95
2023/01/05 13:24:02;;;;;;;5.10;0.60;;;10.10;99.90;;;;;;6323170;22;20027;-95
2023/01/05 13:30:39;;;;;;;4.00;0.60;;;10.10;99.90;;;;;;6170928;22;20107;-95
2023/01/05 13:37:03;;;;;;;2.83;0.60;;;10.10;99.90;;;;;;6231552;22;20041;-90
2023/01/05 13:40:35;;;;;;;3.17;0.63;;;10.10;99.90;;;;;;6265429;22;20019;-91
2023/01/05 13:43:55;;;;;;;;;;;;;;;;;;;;;
2023/01/05 13:54:49;;;;;;;6.63;1.02;;;10.10;99.90;;;;;;6346804;22;20447;-95
2023/01/05 13:57:48;;;;;;;4.68;0.90;;;10.10;99.90;;;;;;6222871;23;20020;-92
2023/01/05 14:00:30;;;;;;;5.45;0.82;;;10.10;99.90;;;;;;6282617;22;20057;-91
2023/01/05 14:03:06;;;;;;;2.05;0.95;;;10.10;99.90;;;;;;6315332;22;20017;-91
2023/01/05 14:05:49;;;;;;;4.63;0.90;;;10.10;99.90;;;;;;6313210;22;20019;-90
2023/01/05 14:08:36;;;;;;;6.28;0.80;;;10.10;99.90;;;;;;6313619;22;20015;-93
2023/01/05 14:11:21;;;;;;;5.13;0.98;;;10.00;99.90;;;;;;6315060;22;20110;-90
2023/01/05 14:14:03;;;;;;;5.22;0.90;;;10.00;99.90;;;;;;6315047;22;20025;-90
2023/01/05 14:16:37;;;;;;;4.15;1.00;;;10.00;99.90;;;;;;6314624;22;20017;-90
2023/01/05 14:19:12;;;;;;;7.55;0.98;;;10.00;99.90;;;;;;6313393;22;20019;-91
2023/01/05 14:21:52;;;;;;;3.97;0.95;;;10.00;99.90;;;;;;6314123;22;20067;-90
2023/01/05 14:24:30;;;;;;;2.72;0.70;;;10.00;99.90;;;;;;6315709;22;20132;-90
2023/01/05 14:27:13;;;;;;;5.30;1.20;;;10.00;99.90;;;;;;6341430;22;20026;-91
2023/01/05 14:29:45;;;;;;;4.88;0.80;;;10.00;99.90;;;;;;6314496;22;20344;-89
2023/01/05 14:32:40;;;;;;;2.22;0.70;;;9.90;99.90;;;;;;6340019;22;20015;-90
2023/01/05 19:54:44;;;;;;;10.63;2.53;;;9.40;99.90;;;;;;6339126;22;20022;-92
2023/01/05 19:59:45;;;;;;;9.55;3.22;;;9.40;99.90;;;;;;6337249;22;20030;-91
2023/01/05 20:02:25;;;;;;;7.83;2.97;;;9.40;99.90;;;;;;6286371;22;20056;-92
2023/01/05 20:04:52;;;;;;;7.95;2.75;;;9.40;99.90;;;;;;6286245;22;20021;-91
2023/01/05 20:07:17;;;;;;;6.75;2.40;;;9.50;99.90;;;;;;6260861;22;20015;-93
2023/01/05 20:09:43;;;;;;;8.33;2.57;;;9.50;99.90;;;;;;6286408;22;20023;-93
2023/01/05 20:12:14;;;;;;;7.60;3.20;;;9.50;99.90;;;;;;6286285;22;20015;-93
2023/01/05 20:14:40;;;;;;;5.60;2.28;;;9.50;99.90;;;;;;6286342;22;20432;-93
2023/01/05 20:17:08;;;;;;;6.30;3.00;;;9.50;99.90;;;;;;6286609;22;20019;-92
2023/01/05 20:19:35;;;;;;;7.32;3.05;;;9.50;99.90;;;;;;6286514;22;20018;-93
2023/01/05 20:22:04;;;;;;;6.82;2.97;;;9.50;99.90;;;;;;6286381;22;20021;-93
2023/01/05 20:24:45;;;;;;;7.22;2.40;;;9.50;99.90;;;;;;6286320;22;20011;-93
2023/01/05 20:30:46;;;;;;;6.68;2.65;;;9.50;99.90;;;;;;6188257;23;20048;-92
2023/01/05 20:33:12;;;;;;;6.97;2.75;;;9.50;99.90;;;;;;6286437;22;20098;-92
2023/01/05 20:35:39;;;;;;;8.20;3.50;;;9.50;99.90;;;;;;6286554;22;20050;-92
2023/01/05 20:38:05;;;;;;;9.73;3.35;;;9.50;99.90;;;;;;6286347;22;20029;-90
2023/01/05 20:40:30;;;;;;;8.03;2.70;;;9.50;99.90;;;;;;6261224;22;20019;-93
2023/01/05 20:42:56;;;;;;;8.67;3.10;;;9.50;99.90;;;;;;6261082;22;20003;-93
2023/01/05 20:45:22;;;;;;;9.53;3.57;;;9.60;99.90;;;;;;6261021;22;20050;-93
2023/01/05 20:47:49;;;;;;;8.27;2.90;;;9.60;99.90;;;;;;6255892;22;20015;-92
2023/01/05 20:50:15;;;;;;;8.20;3.63;;;9.60;99.90;;;;;;6255819;22;20026;-91
2023/01/05 20:52:52;;;;;;;9.90;3.80;;;9.60;99.90;;;;;;6255314;22;20015;-91
2023/01/05 21:04:07;;;;;;;9.20;4.10;;;9.70;99.90;;;;;;6306108;22;20064;-93
2023/01/05 21:06:33;;;;;;;10.67;3.70;;;9.70;99.90;;;;;;6254461;22;20015;-93
2023/01/05 21:17:09;;;;;;;13.02;4.22;;;9.70;99.90;;;;;;6312974;22;20023;-93
2023/01/05 21:19:35;;;;;;;11.87;4.17;;;9.70;99.90;;;;;;6285359;22;20019;-90
2023/01/05 21:22:01;;;;;;;10.13;4.07;;;9.80;99.90;;;;;;6260601;22;20060;-93
2023/01/05 21:24:27;;;;;;;9.87;3.83;;;9.80;99.90;;;;;;6286485;22;20474;-95
2023/01/05 21:26:53;;;;;;;10.63;4.05;;;9.80;99.90;;;;;;6287971;22;20011;-92
2023/01/05 21:29:21;;;;;;;10.30;4.18;;;9.80;99.90;;;;;;6262296;22;20075;-93
2023/01/05 21:35:56;;;;;;;9.98;4.10;;;9.80;99.90;;;;;;6341592;22;20017;-92
2023/01/05 21:38:22;;;;;;;11.07;4.25;;;9.80;99.90;;;;;;6287369;22;20057;-92
2023/01/05 21:40:48;;;;;;;11.30;4.75;;;9.80;99.90;;;;;;6288164;22;20007;-92
2023/01/05 21:43:13;;;;;;;9.83;4.00;;;9.90;99.90;;;;;;6287696;22;20011;-94
2023/01/05 21:56:52;;;;;;;;;;;;;;;;;;;;;
2023/01/05 21:59:23;;;;;;;12.30;4.97;;;9.90;99.90;;;;;;6282425;22;20021;-93
2023/01/05 22:01:58;;;;;;;13.23;4.65;;;9.90;99.90;;;;;;6257226;22;20352;-91
2023/01/05 22:04:24;;;;;;;13.68;4.45;;;10.00;99.90;;;;;;6256655;22;20043;-90
2023/01/05 22:07:20;;;;;;;12.17;4.10;;;10.00;99.90;;;;;;6231681;22;20019;-93
2023/01/05 22:09:52;;;;;;;12.85;4.63;;;10.00;99.90;;;;;;6226953;22;20242;-93
2023/01/05 22:12:17;;;;;;;15.60;5.93;;;10.00;99.90;;;;;;6256477;22;20019;-93
2023/01/05 22:14:44;;;;;;;13.83;5.80;;;10.00;99.90;;;;;;6257058;22;20472;-91
2023/01/05 22:17:10;;;;;;;14.68;5.65;;;10.00;99.90;;;;;;6231678;22;20018;-93
2023/01/05 22:19:36;;;;;;;13.40;5.37;;;10.00;99.90;;;;;;6256923;22;20050;-93
2023/01/05 22:22:02;;;;;;;12.37;5.47;;;10.00;99.90;;;;;;6256738;22;20349;-93
2023/01/05 22:24:28;;;;;;;14.60;5.50;;;10.10;99.90;;;;;;6256595;22;20440;-92
2023/01/05 22:26:57;;;;;;;15.43;6.17;;;10.00;99.90;;;;;;6231536;22;20015;-94
2023/01/05 22:46:29;;;;;;;13.52;6.05;;;10.20;99.90;;;;;;6244621;22;20095;-93
2023/01/05 22:48:56;;;;;;;15.30;6.30;;;10.20;99.90;;;;;;6123999;23;20032;-94
2023/01/05 22:51:35;;;;;;;14.68;6.53;;;10.20;99.90;;;;;;6106193;22;20029;-92
2023/01/05 22:54:07;;;;;;;13.07;5.78;;;10.20;99.90;;;;;;6251392;22;20310;-93
2023/01/05 23:47:39;;;;;;;9.75;3.78;;;10.40;99.90;;;;;;6307313;22;20019;-93
2023/01/05 23:50:05;;;;;;;10.18;3.78;;;10.30;99.90;;;;;;6255503;22;20051;-92
2023/01/05 23:52:31;;;;;;;7.47;3.58;;;10.40;99.90;;;;;;6230441;22;20089;-91
2023/01/05 23:54:57;;;;;;;9.43;3.30;;;10.30;99.90;;;;;;6230519;22;20046;-90
2023/01/05 23:57:23;;;;;;;10.60;4.13;;;10.40;99.90;;;;;;6255736;22;20463;-91
2023/01/05 23:59:48;;;;;;;7.70;3.43;;;10.30;99.90;;;;;;6255568;22;20011;-90
